• Join FlightAware (Why Join?)
  • Login
  • US Flag 
05:42AM EDT


 

Airport Tracker/Info


-or-


 

Live Flight TrackerFlight Track Log ✈ VH-OWG ✈ 06-May-2013 ✈ YBLN / BQB - YPJT / JAD

Flight Track Log - Related Links

Times and Time Zones

All times are in EDT time to prevent confusion due to time zone crossing. See the VH-OWG flight status page for this flight to view local times or setup timezone preferences in your user account.

Time Position Orientation Groundspeed Altitude Reporting Facility
EDT Latitude Longitude Course Direction KTS MPH feet Rate Location/Type
03:44AM -33.6403 115.4135 17° North 160 184 4,000  Level Aus ATC (RADAR)
03:44AM -33.6108 115.4243 17° North 166 191 5,100 1,620 Climbing Aus ATC (RADAR)
03:45AM -33.5877 115.4291 10° North 166 191 5,900 1,680 Climbing Aus ATC (RADAR)
03:46AM -33.5634 115.4420 24° Northeast 162 186 7,000 1,500 Climbing Aus ATC (RADAR)
03:46AM -33.5211 115.4525 12° North 172 198 8,200 1,620 Climbing Aus ATC (RADAR)
03:47AM -33.5033 115.4602 20° North 162 186 9,200 1,980 Climbing Aus ATC (RADAR)
03:47AM -33.4806 115.4692 18° North 147 169 10,200 1,500 Climbing Aus ATC (RADAR)
03:48AM -33.4491 115.4782 13° North 155 178 11,200 1,320 Climbing Aus ATC (RADAR)
03:49AM -33.4253 115.4879 19° North 153 176 12,000 1,260 Climbing Aus ATC (RADAR)
03:50AM -33.3899 115.4990 15° North 156 180 13,000 900 Climbing Aus ATC (RADAR)
03:50AM -33.3782 115.5023 13° North 165 190 13,000  Level Aus ATC (RADAR)
03:51AM -33.3423 115.5138 15° North 202 232 13,000  Level Aus ATC (RADAR)
03:52AM -33.2569 115.5432 16° North 227 261 13,000  Level Aus ATC (RADAR)
03:52AM -33.2361 115.5491 13° North 227 261 13,000  Level Aus ATC (RADAR)
03:53AM -33.1995 115.5618 16° North 232 267 13,000  Level Aus ATC (RADAR)
03:53AM -33.1625 115.5718 13° North 234 269 13,000 -120 Level Aus ATC (RADAR)
03:54AM -33.1257 115.5848 16° North 236 272 12,900 -120 Descending Aus ATC (RADAR)
03:55AM -33.0939 115.5933 13° North 234 269 12,900  Level Aus ATC (RADAR)
03:55AM -33.0566 115.6056 15° North 234 269 12,900  Level Aus ATC (RADAR)
03:56AM -32.9977 115.6236 14° North 236 272 12,900  Level Aus ATC (RADAR)
03:57AM -32.9606 115.6359 15° North 237 273 12,900  Level Aus ATC (RADAR)
03:57AM -32.9287 115.6464 15° North 238 274 12,900  Level Aus ATC (RADAR)
03:58AM -32.8915 115.6580 15° North 237 273 12,900  Level Aus ATC (RADAR)
03:58AM -32.8547 115.6706 16° North 234 269 12,900  Level Aus ATC (RADAR)
03:59AM -32.8174 115.6830 16° North 234 269 12,900  Level Aus ATC (RADAR)
04:00AM -32.7636 115.6985 14° North 236 272 12,900  Level Aus ATC (RADAR)
04:00AM -32.7368 115.7076 16° North 238 274 12,900  Level Aus ATC (RADAR)
04:01AM -32.6991 115.7189 14° North 239 275 12,900  Level Aus ATC (RADAR)
04:02AM -32.6350 115.7401 16° North 236 272 12,900  Level Aus ATC (RADAR)
04:02AM -32.6189 115.7455 16° North 237 273 12,900  Level Aus ATC (RADAR)
04:03AM -32.5815 115.7576 15° North 237 273 12,900 -600 Level Aus ATC (RADAR)
04:03AM -32.5335 115.7721 14° North 215 247 12,100 -1,260 Descending Aus ATC (RADAR)
04:04AM -32.4996 115.7792 10° North 213 245 11,200 -1,500 Descending Aus ATC (RADAR)
04:05AM -32.4551 115.7850 North 213 245 10,100 -1,500 Descending Aus ATC (RADAR)
04:05AM -32.4261 115.7896 North 210 242 9,300 -1,500 Descending Aus ATC (RADAR)
04:06AM -32.3929 115.7945 North 205 236 8,500 -1,560 Descending Aus ATC (RADAR)
04:07AM -32.3373 115.8012 North 198 228 6,900 -1,560 Descending Aus ATC (RADAR)
04:07AM -32.3144 115.8026 North 198 228 6,300 -1,500 Descending Aus ATC (RADAR)
04:08AM -32.2821 115.8041 North 197 227 5,400 -1,500 Descending Aus ATC (RADAR)
04:09AM -32.2393 115.8054 North 204 235 4,300 -1,080 Descending Aus ATC (RADAR)
04:09AM -32.2064 115.8045 359° North 200 230 4,000 -360 Descending Aus ATC (RADAR)
04:10AM -32.1692 115.8037 359° North 179 206 3,900 -420 Descending Aus ATC (RADAR)
04:10AM -32.1432 115.8022 357° North 188 216 3,500 -780 Descending Aus ATC (RADAR)
04:11AM -32.1114 115.8009 358° North 196 226 3,100 -720 Descending Aus ATC (RADAR)
04:12AM -32.0612 115.8046 North 195 224 2,500 -600 Descending Aus ATC (RADAR)
04:12AM -32.0396 115.8065 North 187 215 2,300 -840 Descending Aus ATC (RADAR)
04:13AM -32.0088 115.8051 358° North 189 217 1,700 -600 Descending Aus ATC (RADAR)
04:14AM -32.0095 115.8428 91° East 163 188 1,500 -180 Descending Aus ATC (RADAR)
04:14AM -32.0319 115.8517 161° South 141 162 1,500 -120 Level Aus ATC (RADAR)
04:15AM -32.0563 115.8648 156° South 127 146 1,400 -360 Descending Aus ATC (RADAR)
04:15AM -32.0672 115.8770 137° Southeast 127 146 1,100 -720 Descending Aus ATC (RADAR)
04:16AM -32.0808 115.8932 135° Southeast 116 133 700 -720 Descending Aus ATC (RADAR)